ビリニュス の空港の天気 - METARとTAF

ビリニュス国際空港 ( EYVI / VNO ) - リトアニア ビリニュス
飛行場実況気象(Metar)
観測時間10/20 20:20 EEST (10/20 17:20 UTC)
風向・風速不定 1m/s
視程10km以上
天気現象
少しの雲 雲底高度 1070m
全天の8割程度の雲 雲底高度 5180m
気温7℃
湿度76%
気圧1022hPa
METAREYVI 201720Z VRB01KT 9999 FEW035 BKN170 07/03 Q1022 NOSIG
過去の天気等 Google飛行場航空写真 Wunderground天気予報

過去48時間のMETAR

飛行場予報(TAF)
発表時間: 10/20 20:00 EEST (10/20 17:00 UTC)
予報対象時間: 20日21時 EEST ~ 21日21時 EEST
風向・風速不定 2m/s
視程5000m
天気現象もや
全天の4割程度の雲 雲底高度 90m
20日21時 EEST ~ 20日24時 EEST に 確率 40% で一時的に
視程600m
天気現象
全天の8割程度の雲 雲底高度 60m
21日0時 EEST ~ 21日3時 EEST に一時的に
視程350m
天気現象
全天を覆う雲 雲底高度 60m
21日3時 EEST ~ 21日4時 EEST に徐々に
視程300m
天気現象
全天を覆う雲 雲底高度 60m
21日10時 EEST ~ 21日12時 EEST に徐々に
視程7000m
全天の8割程度の雲 雲底高度 760m
TAF EYVI 201700Z 2018/2118 VRB04KT 5000 BR SCT003
PROB40 TEMPO 2018/2021 0600 FG BKN002
TEMPO 2021/2024 0350 FG OVC002
BECMG 2100/2101 0300 FG OVC002
BECMG 2107/2109 7000 BKN025